First Ferry Vi — VRS4293 — position and weather

sailwx.info

Track history (hours):
 
Tides and Currents Weather Stations Pressure Air Temp Water Temp Dewpoint Dewpoint Depression Visibility Wind Speed Wind Dir Waves Ship Positions

First Ferry Vi

Last reported at 2016-May-05 03:33 UTC. Time now 2016-May-05 04:45 UTC.
Position N 22°17' E 114°10'.

Length 36 m; draft 1.8 m.

Type: Tug. MMSI: 477995028.

Date/timePositionNaut miles runAvg speedWind from/ knotsBaromVisibWave heightAir tempDewpointWater temp
2016-May-05 03:33N 22°17' E 114°10'0 0.2
2016-May-05 01:33N 22°17' E 114°10'2 1.9
2016-May-05 00:33N 22°19' E 114°09'5 3.6
2016-May-04 23:16N 22°16' E 114°05'4 0.6
2016-May-04 15:33N 22°17' E 114°10'4 3.4
2016-May-04 14:16N 22°17' E 114°05'4 6.0
2016-May-04 13:33N 22°17' E 114°10'0 0.0
2016-May-04 12:33N 22°17' E 114°10'4 4.2
2016-May-04 11:32N 22°16' E 114°05'2 1.2
2016-May-04 10:14N 22°17' E 114°06'5 7.2
2016-May-04 09:33N 22°18' E 114°11'1 1.0
2016-May-04 08:33N 22°19' E 114°12'0 0.0
2016-May-04 07:33N 22°19' E 114°12'0 0.0
2016-May-04 06:33N 22°19' E 114°12'1 1.0
2016-May-04 05:34N 22°18' E 114°12'2 1.0
2016-May-04 03:33N 22°17' E 114°10'1 0.6
2016-May-04 01:33N 22°18' E 114°09'1 1.0
2016-May-04 00:33N 22°19' E 114°09'4 3.1
2016-May-03 23:15N 22°17' E 114°05'4 6.3
2016-May-03 22:33N 22°20' E 114°09'0 0.0
2016-May-03 21:27N 22°20' E 114°09'0 0.0
2016-May-03 20:30N 22°20' E 114°09'0 0.0
2016-May-03 19:32N 22°20' E 114°09'0 0.0
2016-May-03 18:34N 22°20' E 114°09'0 0.0
2016-May-03 17:32N 22°20' E 114°09'0 0.0
2016-May-03 16:28N 22°20' E 114°09'0 0.0
2016-May-03 15:32N 22°20' E 114°09'0 0.0
2016-May-03 14:24N 22°20' E 114°09'0 0.0
2016-May-03 13:32N 22°20' E 114°09'0 0.0
2016-May-03 12:26N 22°20' E 114°09'0 0.0
2016-May-03 11:32N 22°20' E 114°09'0 0.0
2016-May-03 10:19N 22°20' E 114°09'0 0.0
2016-May-03 08:32N 22°20' E 114°09'0 0.0
2016-May-03 03:33N 22°20' E 114°09'0 0.2
2016-May-03 02:33N 22°20' E 114°09'0 0.0
2016-May-03 01:33N 22°20' E 114°09'0 0.0
2016-May-03 00:33N 22°20' E 114°09'0 0.0
2016-May-02 23:33N 22°20' E 114°09'0 0.0
2016-May-02 22:33N 22°20' E 114°09'0 0.0
2016-May-02 21:33N 22°20' E 114°09'0 0.0
2016-May-02 20:33N 22°20' E 114°09'0 0.0
2016-May-02 19:33N 22°20' E 114°09'0 0.0
2016-May-02 18:33N 22°20' E 114°09'0 0.0
2016-May-02 17:33N 22°20' E 114°09'0 0.0
2016-May-02 16:30N 22°20' E 114°09'0 0.0
2016-May-02 15:33N 22°20' E 114°09'0 0.0
2016-May-02 14:33N 22°20' E 114°09'0 0.0
2016-May-02 13:33N 22°20' E 114°09'0 0.0
2016-May-02 12:33N 22°20' E 114°09'0 0.0
2016-May-02 11:33N 22°20' E 114°09'0 0.0
2016-May-02 10:33N 22°20' E 114°09'0 0.0
2016-May-02 09:33N 22°20' E 114°09'0 0.0
2016-May-02 08:33N 22°20' E 114°09'0 0.0
2016-May-02 07:33N 22°20' E 114°09'0 0.0
2016-May-02 06:34N 22°20' E 114°09'0 0.0
2016-May-02 05:33N 22°20' E 114°09'0 0.0
2016-May-02 04:33N 22°20' E 114°09'0 0.0
2016-May-02 03:33N 22°20' E 114°09'0 0.0
2016-May-02 02:34N 22°20' E 114°09'0 0.0
2016-May-02 01:33N 22°20' E 114°09'0 0.0
2016-May-02 00:33N 22°20' E 114°09'0 0.0
2016-May-01 23:33N 22°20' E 114°09'0 0.0
2016-May-01 22:33N 22°20' E 114°09'0 0.0
2016-May-01 21:33N 22°20' E 114°09'0 0.0
2016-May-01 20:33N 22°20' E 114°09'0 0.0
2016-May-01 19:33N 22°20' E 114°09'0 0.0
2016-May-01 18:33N 22°20' E 114°09'0 0.0
2016-May-01 17:33N 22°20' E 114°09'0 0.0
2016-May-01 16:33N 22°20' E 114°09'0 0.0
2016-May-01 15:33N 22°20' E 114°09'0 0.0
2016-May-01 14:33N 22°20' E 114°09'0 0.0
2016-May-01 13:31N 22°20' E 114°09'0 0.0
2016-May-01 12:33N 22°20' E 114°09'0 0.0
2016-May-01 11:33N 22°20' E 114°09'0 0.0
2016-May-01 10:33N 22°20' E 114°09'0 0.0
2016-May-01 09:33N 22°20' E 114°09'0 0.0
2016-May-01 08:33N 22°20' E 114°09'0 0.0
2016-May-01 07:33N 22°20' E 114°09'0 0.0
2016-May-01 06:33N 22°20' E 114°09'0 0.0
2016-May-01 05:33N 22°20' E 114°09'0 0.0
2016-May-01 04:33N 22°20' E 114°09'0 0.0
2016-May-01 03:33N 22°20' E 114°09'0 0.0
2016-May-01 02:33N 22°20' E 114°09'0 0.0
2016-May-01 01:33N 22°20' E 114°09'0 0.0
2016-May-01 00:33N 22°20' E 114°09'0 0.0
2016-Apr-30 23:33N 22°20' E 114°09'0 0.0
2016-Apr-30 22:33N 22°20' E 114°09'0 0.0
2016-Apr-30 21:33N 22°20' E 114°09'0 0.0
2016-Apr-30 20:33N 22°20' E 114°09'0 0.0
2016-Apr-30 19:33N 22°20' E 114°09'0 0.0
2016-Apr-30 18:33N 22°20' E 114°09'0 0.0
2016-Apr-30 17:33N 22°20' E 114°09'0 0.0
2016-Apr-30 16:33N 22°20' E 114°09'0 0.0
2016-Apr-30 15:32N 22°20' E 114°09'0 0.0
2016-Apr-30 14:33N 22°20' E 114°09'0 0.0
2016-Apr-30 13:33N 22°20' E 114°09'0 0.0
2016-Apr-30 12:32N 22°20' E 114°09'0 0.0
2016-Apr-30 11:33N 22°20' E 114°09'0 0.0
2016-Apr-30 10:33N 22°20' E 114°09'0 0.0
2016-Apr-30 09:33N 22°20' E 114°09'0 0.0
2016-Apr-30 08:32N 22°20' E 114°09'0 0.0
2016-Apr-30 07:33N 22°20' E 114°09'0 0.0
2016-Apr-30 06:32N 22°20' E 114°09'0 0.0
2016-Apr-30 05:33N 22°20' E 114°09'0 0.0
2016-Apr-30 04:34N 22°20' E 114°09'0 0.0
2016-Apr-30 03:33N 22°20' E 114°09'0 0.0
2016-Apr-30 02:33N 22°20' E 114°09'0 0.0
2016-Apr-30 01:33N 22°20' E 114°09'0 0.0
2016-Apr-30 00:33N 22°20' E 114°09'0 0.0
2016-Apr-29 23:32N 22°20' E 114°09'0 0.0
2016-Apr-29 22:32N 22°20' E 114°09'0 0.0
2016-Apr-29 21:32N 22°20' E 114°09'0 0.0
2016-Apr-29 20:32N 22°20' E 114°09'0 0.0
2016-Apr-29 19:33N 22°20' E 114°09'0 0.0
2016-Apr-29 18:30N 22°20' E 114°09'0 0.0
2016-Apr-29 17:30N 22°20' E 114°09'0 0.0
2016-Apr-29 16:31N 22°20' E 114°09'0 0.0
2016-Apr-29 15:33N 22°20' E 114°09'0 0.0
2016-Apr-29 14:33N 22°20' E 114°09'0 0.0
2016-Apr-29 13:33N 22°20' E 114°09'0 0.0
2016-Apr-29 12:33N 22°20' E 114°09'0 0.0
2016-Apr-29 11:33N 22°20' E 114°09'0 0.0
2016-Apr-29 10:32N 22°20' E 114°09'0 0.0
2016-Apr-29 09:33N 22°20' E 114°09'1 0.8
2016-Apr-29 08:33N 22°19' E 114°09'1 0.8
2016-Apr-29 07:31N 22°20' E 114°09'1 0.5
2016-Apr-29 05:33N 22°19' E 114°09'1 0.8
2016-Apr-29 04:29N 22°20' E 114°09'0 0.0
2016-Apr-29 03:28N 22°20' E 114°09'0 0.0
2016-Apr-29 02:33N 22°20' E 114°09'0 0.0
2016-Apr-29 01:32N 22°20' E 114°09'0 0.0
2016-Apr-29 00:33N 22°20' E 114°09'0 0.0
2016-Apr-28 23:32N 22°20' E 114°09'0 0.0
2016-Apr-28 22:33N 22°20' E 114°09'0 0.0
2016-Apr-28 21:31N 22°20' E 114°09'0 0.0
2016-Apr-28 20:31N 22°20' E 114°09'0 0.0
2016-Apr-28 19:32N 22°20' E 114°09'0 0.0
2016-Apr-28 18:31N 22°20' E 114°09'0 0.0
2016-Apr-28 17:33N 22°20' E 114°09'0 0.0
2016-Apr-28 16:33N 22°20' E 114°09'0 0.0
2016-Apr-28 15:33N 22°20' E 114°09'0 0.0
2016-Apr-28 14:32N 22°20' E 114°09'0 0.0
2016-Apr-28 13:31N 22°20' E 114°09'0 0.0
2016-Apr-28 12:33N 22°20' E 114°09'0 0.0
2016-Apr-28 11:22N 22°20' E 114°09'0 0.0
2016-Apr-28 10:33N 22°20' E 114°09'  
Track history (hours):
 
Tides and Currents Weather Stations Pressure Air Temp Water Temp Dewpoint Dewpoint Depression Visibility Wind Speed Wind Dir Waves Ship Positions

First Ferry Vi

Last reported at 2016-May-05 03:33 UTC. Time now 2016-May-05 04:45 UTC.
Position N 22°17' E 114°10'.

Length 36 m; draft 1.8 m.

Type: Tug. MMSI: 477995028.

Date/timePositionNaut miles runAvg speedWind from/ knotsBaromVisibWave heightAir tempDewpointWater temp
2016-May-05 03:33N 22°17' E 114°10'0 0.2
2016-May-05 01:33N 22°17' E 114°10'2 1.9
2016-May-05 00:33N 22°19' E 114°09'5 3.6
2016-May-04 23:16N 22°16' E 114°05'4 0.6
2016-May-04 15:33N 22°17' E 114°10'4 3.4
2016-May-04 14:16N 22°17' E 114°05'4 6.0
2016-May-04 13:33N 22°17' E 114°10'0 0.0
2016-May-04 12:33N 22°17' E 114°10'4 4.2
2016-May-04 11:32N 22°16' E 114°05'2 1.2
2016-May-04 10:14N 22°17' E 114°06'5 7.2
2016-May-04 09:33N 22°18' E 114°11'1 1.0
2016-May-04 08:33N 22°19' E 114°12'0 0.0
2016-May-04 07:33N 22°19' E 114°12'0 0.0
2016-May-04 06:33N 22°19' E 114°12'1 1.0
2016-May-04 05:34N 22°18' E 114°12'2 1.0
2016-May-04 03:33N 22°17' E 114°10'1 0.6
2016-May-04 01:33N 22°18' E 114°09'1 1.0
2016-May-04 00:33N 22°19' E 114°09'4 3.1
2016-May-03 23:15N 22°17' E 114°05'4 6.3
2016-May-03 22:33N 22°20' E 114°09'0 0.0
2016-May-03 21:27N 22°20' E 114°09'0 0.0
2016-May-03 20:30N 22°20' E 114°09'0 0.0
2016-May-03 19:32N 22°20' E 114°09'0 0.0
2016-May-03 18:34N 22°20' E 114°09'0 0.0
2016-May-03 17:32N 22°20' E 114°09'0 0.0
2016-May-03 16:28N 22°20' E 114°09'0 0.0
2016-May-03 15:32N 22°20' E 114°09'0 0.0
2016-May-03 14:24N 22°20' E 114°09'0 0.0
2016-May-03 13:32N 22°20' E 114°09'0 0.0
2016-May-03 12:26N 22°20' E 114°09'0 0.0
2016-May-03 11:32N 22°20' E 114°09'0 0.0
2016-May-03 10:19N 22°20' E 114°09'0 0.0
2016-May-03 08:32N 22°20' E 114°09'0 0.0
2016-May-03 03:33N 22°20' E 114°09'0 0.2
2016-May-03 02:33N 22°20' E 114°09'0 0.0
2016-May-03 01:33N 22°20' E 114°09'0 0.0
2016-May-03 00:33N 22°20' E 114°09'0 0.0
2016-May-02 23:33N 22°20' E 114°09'0 0.0
2016-May-02 22:33N 22°20' E 114°09'0 0.0
2016-May-02 21:33N 22°20' E 114°09'0 0.0
2016-May-02 20:33N 22°20' E 114°09'0 0.0
2016-May-02 19:33N 22°20' E 114°09'0 0.0
2016-May-02 18:33N 22°20' E 114°09'0 0.0
2016-May-02 17:33N 22°20' E 114°09'0 0.0
2016-May-02 16:30N 22°20' E 114°09'0 0.0
2016-May-02 15:33N 22°20' E 114°09'0 0.0
2016-May-02 14:33N 22°20' E 114°09'0 0.0
2016-May-02 13:33N 22°20' E 114°09'0 0.0
2016-May-02 12:33N 22°20' E 114°09'0 0.0
2016-May-02 11:33N 22°20' E 114°09'0 0.0
2016-May-02 10:33N 22°20' E 114°09'0 0.0
2016-May-02 09:33N 22°20' E 114°09'0 0.0
2016-May-02 08:33N 22°20' E 114°09'0 0.0
2016-May-02 07:33N 22°20' E 114°09'0 0.0
2016-May-02 06:34N 22°20' E 114°09'0 0.0
2016-May-02 05:33N 22°20' E 114°09'0 0.0
2016-May-02 04:33N 22°20' E 114°09'0 0.0
2016-May-02 03:33N 22°20' E 114°09'0 0.0
2016-May-02 02:34N 22°20' E 114°09'0 0.0
2016-May-02 01:33N 22°20' E 114°09'0 0.0
2016-May-02 00:33N 22°20' E 114°09'0 0.0
2016-May-01 23:33N 22°20' E 114°09'0 0.0
2016-May-01 22:33N 22°20' E 114°09'0 0.0
2016-May-01 21:33N 22°20' E 114°09'0 0.0
2016-May-01 20:33N 22°20' E 114°09'0 0.0
2016-May-01 19:33N 22°20' E 114°09'0 0.0
2016-May-01 18:33N 22°20' E 114°09'0 0.0
2016-May-01 17:33N 22°20' E 114°09'0 0.0
2016-May-01 16:33N 22°20' E 114°09'0 0.0
2016-May-01 15:33N 22°20' E 114°09'0 0.0
2016-May-01 14:33N 22°20' E 114°09'0 0.0
2016-May-01 13:31N 22°20' E 114°09'0 0.0
2016-May-01 12:33N 22°20' E 114°09'0 0.0
2016-May-01 11:33N 22°20' E 114°09'0 0.0
2016-May-01 10:33N 22°20' E 114°09'0 0.0
2016-May-01 09:33N 22°20' E 114°09'0 0.0
2016-May-01 08:33N 22°20' E 114°09'0 0.0
2016-May-01 07:33N 22°20' E 114°09'0 0.0
2016-May-01 06:33N 22°20' E 114°09'0 0.0
2016-May-01 05:33N 22°20' E 114°09'0 0.0
2016-May-01 04:33N 22°20' E 114°09'0 0.0
2016-May-01 03:33N 22°20' E 114°09'0 0.0
2016-May-01 02:33N 22°20' E 114°09'0 0.0
2016-May-01 01:33N 22°20' E 114°09'0 0.0
2016-May-01 00:33N 22°20' E 114°09'0 0.0
2016-Apr-30 23:33N 22°20' E 114°09'0 0.0
2016-Apr-30 22:33N 22°20' E 114°09'0 0.0
2016-Apr-30 21:33N 22°20' E 114°09'0 0.0
2016-Apr-30 20:33N 22°20' E 114°09'0 0.0
2016-Apr-30 19:33N 22°20' E 114°09'0 0.0
2016-Apr-30 18:33N 22°20' E 114°09'0 0.0
2016-Apr-30 17:33N 22°20' E 114°09'0 0.0
2016-Apr-30 16:33N 22°20' E 114°09'0 0.0
2016-Apr-30 15:32N 22°20' E 114°09'0 0.0
2016-Apr-30 14:33N 22°20' E 114°09'0 0.0
2016-Apr-30 13:33N 22°20' E 114°09'0 0.0
2016-Apr-30 12:32N 22°20' E 114°09'0 0.0
2016-Apr-30 11:33N 22°20' E 114°09'0 0.0
2016-Apr-30 10:33N 22°20' E 114°09'0 0.0
2016-Apr-30 09:33N 22°20' E 114°09'0 0.0
2016-Apr-30 08:32N 22°20' E 114°09'0 0.0
2016-Apr-30 07:33N 22°20' E 114°09'0 0.0
2016-Apr-30 06:32N 22°20' E 114°09'0 0.0
2016-Apr-30 05:33N 22°20' E 114°09'0 0.0
2016-Apr-30 04:34N 22°20' E 114°09'0 0.0
2016-Apr-30 03:33N 22°20' E 114°09'0 0.0
2016-Apr-30 02:33N 22°20' E 114°09'0 0.0
2016-Apr-30 01:33N 22°20' E 114°09'0 0.0
2016-Apr-30 00:33N 22°20' E 114°09'0 0.0
2016-Apr-29 23:32N 22°20' E 114°09'0 0.0
2016-Apr-29 22:32N 22°20' E 114°09'0 0.0
2016-Apr-29 21:32N 22°20' E 114°09'0 0.0
2016-Apr-29 20:32N 22°20' E 114°09'0 0.0
2016-Apr-29 19:33N 22°20' E 114°09'0 0.0
2016-Apr-29 18:30N 22°20' E 114°09'0 0.0
2016-Apr-29 17:30N 22°20' E 114°09'0 0.0
2016-Apr-29 16:31N 22°20' E 114°09'0 0.0
2016-Apr-29 15:33N 22°20' E 114°09'0 0.0
2016-Apr-29 14:33N 22°20' E 114°09'0 0.0
2016-Apr-29 13:33N 22°20' E 114°09'0 0.0
2016-Apr-29 12:33N 22°20' E 114°09'0 0.0
2016-Apr-29 11:33N 22°20' E 114°09'0 0.0
2016-Apr-29 10:32N 22°20' E 114°09'0 0.0
2016-Apr-29 09:33N 22°20' E 114°09'1 0.8
2016-Apr-29 08:33N 22°19' E 114°09'1 0.8
2016-Apr-29 07:31N 22°20' E 114°09'1 0.5
2016-Apr-29 05:33N 22°19' E 114°09'1 0.8
2016-Apr-29 04:29N 22°20' E 114°09'0 0.0
2016-Apr-29 03:28N 22°20' E 114°09'0 0.0
2016-Apr-29 02:33N 22°20' E 114°09'0 0.0
2016-Apr-29 01:32N 22°20' E 114°09'0 0.0
2016-Apr-29 00:33N 22°20' E 114°09'0 0.0
2016-Apr-28 23:32N 22°20' E 114°09'0 0.0
2016-Apr-28 22:33N 22°20' E 114°09'0 0.0
2016-Apr-28 21:31N 22°20' E 114°09'0 0.0
2016-Apr-28 20:31N 22°20' E 114°09'0 0.0
2016-Apr-28 19:32N 22°20' E 114°09'0 0.0
2016-Apr-28 18:31N 22°20' E 114°09'0 0.0
2016-Apr-28 17:33N 22°20' E 114°09'0 0.0
2016-Apr-28 16:33N 22°20' E 114°09'0 0.0
2016-Apr-28 15:33N 22°20' E 114°09'0 0.0
2016-Apr-28 14:32N 22°20' E 114°09'0 0.0
2016-Apr-28 13:31N 22°20' E 114°09'0 0.0
2016-Apr-28 12:33N 22°20' E 114°09'0 0.0
2016-Apr-28 11:22N 22°20' E 114°09'0 0.0
2016-Apr-28 10:33N 22°20' E 114°09'  

Dump ship's entire track history